sensor_id;sensor_type;location;lat;lon;timestamp;P1;durP1;ratioP1;P2;durP2;ratioP2
5904;SDS011;2978;42.012;24.880;2023-05-14T00:00:00;7.00;;;4.50;;
5904;SDS011;2978;42.012;24.880;2023-05-14T00:02:26;8.33;;;4.40;;
5904;SDS011;2978;42.012;24.880;2023-05-14T00:04:51;6.23;;;4.03;;
5904;SDS011;2978;42.012;24.880;2023-05-14T00:07:17;6.00;;;3.87;;
5904;SDS011;2978;42.012;24.880;2023-05-14T00:09:42;5.20;;;3.93;;
5904;SDS011;2978;42.012;24.880;2023-05-14T00:12:08;5.17;;;3.43;;
5904;SDS011;2978;42.012;24.880;2023-05-14T00:14:33;5.07;;;4.57;;
5904;SDS011;2978;42.012;24.880;2023-05-14T00:16:59;7.80;;;4.50;;
5904;SDS011;2978;42.012;24.880;2023-05-14T00:19:26;4.33;;;3.77;;
5904;SDS011;2978;42.012;24.880;2023-05-14T00:21:51;5.13;;;4.00;;
5904;SDS011;2978;42.012;24.880;2023-05-14T00:24:17;4.97;;;4.10;;
5904;SDS011;2978;42.012;24.880;2023-05-14T00:26:42;5.87;;;3.73;;
5904;SDS011;2978;42.012;24.880;2023-05-14T00:29:08;4.63;;;3.37;;
5904;SDS011;2978;42.012;24.880;2023-05-14T00:31:33;9.03;;;4.37;;
5904;SDS011;2978;42.012;24.880;2023-05-14T00:34:18;4.50;;;3.77;;
5904;SDS011;2978;42.012;24.880;2023-05-14T00:36:43;5.43;;;4.07;;
5904;SDS011;2978;42.012;24.880;2023-05-14T00:39:09;5.47;;;3.83;;
5904;SDS011;2978;42.012;24.880;2023-05-14T00:41:34;7.13;;;3.60;;
5904;SDS011;2978;42.012;24.880;2023-05-14T00:44:00;4.53;;;3.80;;
5904;SDS011;2978;42.012;24.880;2023-05-14T00:46:26;6.30;;;3.80;;
5904;SDS011;2978;42.012;24.880;2023-05-14T00:48:52;5.90;;;3.80;;
5904;SDS011;2978;42.012;24.880;2023-05-14T00:51:17;5.50;;;3.60;;
5904;SDS011;2978;42.012;24.880;2023-05-14T00:53:47;6.20;;;3.30;;
5904;SDS011;2978;42.012;24.880;2023-05-14T01:09:04;5.47;;;3.87;;
5904;SDS011;2978;42.012;24.880;2023-05-14T01:11:56;10.50;;;4.00;;
5904;SDS011;2978;42.012;24.880;2023-05-14T01:17:10;5.13;;;2.90;;
5904;SDS011;2978;42.012;24.880;2023-05-14T01:19:41;6.70;;;3.60;;
5904;SDS011;2978;42.012;24.880;2023-05-14T01:22:08;5.33;;;3.30;;
5904;SDS011;2978;42.012;24.880;2023-05-14T01:24:34;10.40;;;3.73;;
5904;SDS011;2978;42.012;24.880;2023-05-14T01:27:02;5.53;;;3.37;;
5904;SDS011;2978;42.012;24.880;2023-05-14T01:29:30;6.03;;;3.47;;
5904;SDS011;2978;42.012;24.880;2023-05-14T01:31:59;7.27;;;3.27;;
5904;SDS011;2978;42.012;24.880;2023-05-14T01:34:27;5.50;;;2.90;;
5904;SDS011;2978;42.012;24.880;2023-05-14T01:36:55;5.17;;;3.47;;
5904;SDS011;2978;42.012;24.880;2023-05-14T01:39:21;4.83;;;3.27;;
5904;SDS011;2978;42.012;24.880;2023-05-14T01:41:49;6.77;;;3.60;;
5904;SDS011;2978;42.012;24.880;2023-05-14T01:44:16;6.93;;;3.80;;
5904;SDS011;2978;42.012;24.880;2023-05-14T01:57:17;23.23;;;4.00;;
5904;SDS011;2978;42.012;24.880;2023-05-14T01:59:43;7.90;;;3.50;;
5904;SDS011;2978;42.012;24.880;2023-05-14T02:02:08;4.80;;;3.70;;
5904;SDS011;2978;42.012;24.880;2023-05-14T02:04:34;5.60;;;3.77;;
5904;SDS011;2978;42.012;24.880;2023-05-14T02:07:15;13.33;;;4.23;;
5904;SDS011;2978;42.012;24.880;2023-05-14T02:09:40;4.13;;;3.13;;
5904;SDS011;2978;42.012;24.880;2023-05-14T02:12:09;8.47;;;3.80;;
5904;SDS011;2978;42.012;24.880;2023-05-14T02:14:35;7.43;;;3.30;;
5904;SDS011;2978;42.012;24.880;2023-05-14T02:24:04;5.63;;;4.10;;
5904;SDS011;2978;42.012;24.880;2023-05-14T02:26:30;6.60;;;3.60;;
5904;SDS011;2978;42.012;24.880;2023-05-14T03:17:10;6.27;;;4.50;;
5904;SDS011;2978;42.012;24.880;2023-05-14T03:19:42;6.17;;;4.13;;
5904;SDS011;2978;42.012;24.880;2023-05-14T03:22:07;9.87;;;4.50;;
5904;SDS011;2978;42.012;24.880;2023-05-14T03:24:33;5.67;;;4.10;;
5904;SDS011;2978;42.012;24.880;2023-05-14T03:27:01;12.50;;;4.43;;
5904;SDS011;2978;42.012;24.880;2023-05-14T03:29:27;4.53;;;3.87;;
5904;SDS011;2978;42.012;24.880;2023-05-14T03:31:53;5.30;;;3.80;;
5904;SDS011;2978;42.012;24.880;2023-05-14T03:34:18;9.00;;;5.17;;
5904;SDS011;2978;42.012;24.880;2023-05-14T03:36:44;5.37;;;4.30;;
5904;SDS011;2978;42.012;24.880;2023-05-14T03:39:09;8.63;;;4.37;;
5904;SDS011;2978;42.012;24.880;2023-05-14T03:41:44;10.60;;;4.73;;
5904;SDS011;2978;42.012;24.880;2023-05-14T03:48:11;9.40;;;5.50;;
5904;SDS011;2978;42.012;24.880;2023-05-14T03:50:37;8.30;;;4.67;;
5904;SDS011;2978;42.012;24.880;2023-05-14T03:53:02;5.73;;;4.20;;
5904;SDS011;2978;42.012;24.880;2023-05-14T03:55:28;5.77;;;4.10;;
5904;SDS011;2978;42.012;24.880;2023-05-14T03:57:53;6.40;;;5.27;;
5904;SDS011;2978;42.012;24.880;2023-05-14T04:03:40;6.10;;;4.63;;
5904;SDS011;2978;42.012;24.880;2023-05-14T04:06:06;7.17;;;4.70;;
5904;SDS011;2978;42.012;24.880;2023-05-14T04:08:31;7.93;;;5.10;;
5904;SDS011;2978;42.012;24.880;2023-05-14T04:10:56;5.43;;;4.93;;
5904;SDS011;2978;42.012;24.880;2023-05-14T04:13:22;5.60;;;4.83;;
5904;SDS011;2978;42.012;24.880;2023-05-14T04:15:48;8.50;;;4.97;;
5904;SDS011;2978;42.012;24.880;2023-05-14T04:18:13;10.00;;;5.30;;
5904;SDS011;2978;42.012;24.880;2023-05-14T04:20:39;20.70;;;6.70;;
5904;SDS011;2978;42.012;24.880;2023-05-14T04:23:04;10.17;;;6.37;;
5904;SDS011;2978;42.012;24.880;2023-05-14T04:25:39;8.23;;;6.13;;
5904;SDS011;2978;42.012;24.880;2023-05-14T04:28:04;9.33;;;5.90;;
5904;SDS011;2978;42.012;24.880;2023-05-14T04:30:35;14.50;;;6.13;;
5904;SDS011;2978;42.012;24.880;2023-05-14T04:33:01;9.97;;;6.50;;
5904;SDS011;2978;42.012;24.880;2023-05-14T04:35:32;14.83;;;5.80;;
5904;SDS011;2978;42.012;24.880;2023-05-14T04:38:03;10.30;;;6.27;;
5904;SDS011;2978;42.012;24.880;2023-05-14T04:40:30;8.80;;;5.03;;
5904;SDS011;2978;42.012;24.880;2023-05-14T04:42:55;7.63;;;5.40;;
5904;SDS011;2978;42.012;24.880;2023-05-14T04:45:21;10.17;;;5.47;;
5904;SDS011;2978;42.012;24.880;2023-05-14T05:02:46;8.50;;;5.10;;
5904;SDS011;2978;42.012;24.880;2023-05-14T05:05:33;10.90;;;5.13;;
5904;SDS011;2978;42.012;24.880;2023-05-14T05:11:29;7.23;;;5.27;;
5904;SDS011;2978;42.012;24.880;2023-05-14T05:14:01;8.80;;;6.57;;
5904;SDS011;2978;42.012;24.880;2023-05-14T05:19:02;15.17;;;6.13;;
5904;SDS011;2978;42.012;24.880;2023-05-14T05:21:31;9.93;;;5.67;;
5904;SDS011;2978;42.012;24.880;2023-05-14T05:24:09;9.60;;;5.33;;
5904;SDS011;2978;42.012;24.880;2023-05-14T05:26:57;9.17;;;5.33;;
5904;SDS011;2978;42.012;24.880;2023-05-14T05:29:38;12.17;;;5.43;;
5904;SDS011;2978;42.012;24.880;2023-05-14T05:32:38;7.70;;;5.60;;
5904;SDS011;2978;42.012;24.880;2023-05-14T05:38:08;8.83;;;5.00;;
5904;SDS011;2978;42.012;24.880;2023-05-14T05:40:40;13.40;;;5.93;;
5904;SDS011;2978;42.012;24.880;2023-05-14T05:43:14;15.27;;;6.23;;
5904;SDS011;2978;42.012;24.880;2023-05-14T05:45:40;13.50;;;5.90;;
5904;SDS011;2978;42.012;24.880;2023-05-14T05:48:06;16.23;;;5.73;;
5904;SDS011;2978;42.012;24.880;2023-05-14T05:59:57;6.53;;;4.97;;
5904;SDS011;2978;42.012;24.880;2023-05-14T06:02:23;10.73;;;4.73;;
5904;SDS011;2978;42.012;24.880;2023-05-14T06:04:54;8.90;;;5.40;;
5904;SDS011;2978;42.012;24.880;2023-05-14T06:07:20;13.93;;;4.43;;
5904;SDS011;2978;42.012;24.880;2023-05-14T06:09:45;7.80;;;4.70;;
5904;SDS011;2978;42.012;24.880;2023-05-14T06:12:11;12.83;;;5.00;;
5904;SDS011;2978;42.012;24.880;2023-05-14T06:14:39;10.13;;;4.70;;
5904;SDS011;2978;42.012;24.880;2023-05-14T06:23:17;10.23;;;6.70;;
5904;SDS011;2978;42.012;24.880;2023-05-14T06:25:45;8.30;;;4.77;;
5904;SDS011;2978;42.012;24.880;2023-05-14T07:45:19;10.87;;;6.07;;
5904;SDS011;2978;42.012;24.880;2023-05-14T07:47:45;7.33;;;6.03;;
5904;SDS011;2978;42.012;24.880;2023-05-14T07:50:10;11.43;;;6.20;;
5904;SDS011;2978;42.012;24.880;2023-05-14T07:52:36;6.93;;;6.20;;
5904;SDS011;2978;42.012;24.880;2023-05-14T07:55:02;7.10;;;6.37;;
5904;SDS011;2978;42.012;24.880;2023-05-14T07:57:28;8.20;;;6.50;;
5904;SDS011;2978;42.012;24.880;2023-05-14T07:59:53;9.97;;;6.10;;
5904;SDS011;2978;42.012;24.880;2023-05-14T08:05:40;16.07;;;7.43;;
5904;SDS011;2978;42.012;24.880;2023-05-14T08:08:12;7.00;;;6.23;;
5904;SDS011;2978;42.012;24.880;2023-05-14T08:10:43;11.53;;;7.37;;
5904;SDS011;2978;42.012;24.880;2023-05-14T08:13:09;11.30;;;7.73;;
5904;SDS011;2978;42.012;24.880;2023-05-14T08:15:37;14.17;;;7.60;;
5904;SDS011;2978;42.012;24.880;2023-05-14T08:18:06;12.40;;;6.90;;
5904;SDS011;2978;42.012;24.880;2023-05-14T08:31:35;9.97;;;7.10;;
5904;SDS011;2978;42.012;24.880;2023-05-14T08:34:01;7.67;;;5.60;;
5904;SDS011;2978;42.012;24.880;2023-05-14T08:36:26;7.77;;;5.83;;
5904;SDS011;2978;42.012;24.880;2023-05-14T08:38:52;7.60;;;6.00;;
5904;SDS011;2978;42.012;24.880;2023-05-14T08:41:17;9.30;;;6.30;;
5904;SDS011;2978;42.012;24.880;2023-05-14T08:46:30;6.57;;;5.00;;
5904;SDS011;2978;42.012;24.880;2023-05-14T08:48:59;15.93;;;6.30;;
5904;SDS011;2978;42.012;24.880;2023-05-14T08:51:38;13.03;;;6.50;;
5904;SDS011;2978;42.012;24.880;2023-05-14T08:54:07;10.43;;;6.07;;
5904;SDS011;2978;42.012;24.880;2023-05-14T08:56:37;11.97;;;7.00;;
5904;SDS011;2978;42.012;24.880;2023-05-14T08:59:04;9.30;;;6.70;;
5904;SDS011;2978;42.012;24.880;2023-05-14T09:18:06;12.97;;;8.27;;
5904;SDS011;2978;42.012;24.880;2023-05-14T09:23:45;8.60;;;6.67;;
5904;SDS011;2978;42.012;24.880;2023-05-14T09:26:15;8.97;;;6.90;;
5904;SDS011;2978;42.012;24.880;2023-05-14T09:28:42;11.30;;;6.07;;
5904;SDS011;2978;42.012;24.880;2023-05-14T09:32:10;8.03;;;7.23;;
5904;SDS011;2978;42.012;24.880;2023-05-14T09:37:47;12.00;;;7.60;;
5904;SDS011;2978;42.012;24.880;2023-05-14T09:43:43;12.80;;;8.30;;
5904;SDS011;2978;42.012;24.880;2023-05-14T09:46:15;10.07;;;8.60;;
5904;SDS011;2978;42.012;24.880;2023-05-14T09:48:57;9.10;;;7.53;;
5904;SDS011;2978;42.012;24.880;2023-05-14T09:54:45;11.57;;;9.20;;
5904;SDS011;2978;42.012;24.880;2023-05-14T10:08:44;13.00;;;9.90;;
5904;SDS011;2978;42.012;24.880;2023-05-14T10:11:41;13.30;;;10.93;;
5904;SDS011;2978;42.012;24.880;2023-05-14T11:46:19;10.87;;;9.77;;
5904;SDS011;2978;42.012;24.880;2023-05-14T11:57:11;10.57;;;9.20;;
5904;SDS011;2978;42.012;24.880;2023-05-14T11:59:41;13.33;;;9.83;;
5904;SDS011;2978;42.012;24.880;2023-05-14T12:02:17;10.70;;;9.37;;
5904;SDS011;2978;42.012;24.880;2023-05-14T12:04:48;14.00;;;9.90;;
5904;SDS011;2978;42.012;24.880;2023-05-14T12:07:16;13.03;;;9.53;;
5904;SDS011;2978;42.012;24.880;2023-05-14T12:09:44;16.60;;;10.03;;
5904;SDS011;2978;42.012;24.880;2023-05-14T12:12:17;11.07;;;8.50;;
5904;SDS011;2978;42.012;24.880;2023-05-14T12:14:51;11.10;;;9.27;;
5904;SDS011;2978;42.012;24.880;2023-05-14T12:17:19;11.10;;;9.80;;
5904;SDS011;2978;42.012;24.880;2023-05-14T13:54:27;21.33;;;14.80;;
5904;SDS011;2978;42.012;24.880;2023-05-14T13:57:01;20.70;;;14.60;;
5904;SDS011;2978;42.012;24.880;2023-05-14T15:21:34;28.73;;;18.50;;
5904;SDS011;2978;42.012;24.880;2023-05-14T15:24:03;23.60;;;18.17;;
5904;SDS011;2978;42.012;24.880;2023-05-14T15:39:02;27.10;;;19.50;;
5904;SDS011;2978;42.012;24.880;2023-05-14T15:44:49;34.07;;;23.40;;
5904;SDS011;2978;42.012;24.880;2023-05-14T15:47:24;29.53;;;22.43;;
5904;SDS011;2978;42.012;24.880;2023-05-14T15:50:05;31.13;;;22.93;;
5904;SDS011;2978;42.012;24.880;2023-05-14T15:52:34;31.20;;;24.10;;
5904;SDS011;2978;42.012;24.880;2023-05-14T15:55:01;32.40;;;22.63;;
5904;SDS011;2978;42.012;24.880;2023-05-14T15:57:27;31.37;;;22.77;;
5904;SDS011;2978;42.012;24.880;2023-05-14T15:59:52;33.17;;;22.70;;
5904;SDS011;2978;42.012;24.880;2023-05-14T16:02:18;24.87;;;21.57;;
5904;SDS011;2978;42.012;24.880;2023-05-14T16:04:43;28.97;;;22.53;;
5904;SDS011;2978;42.012;24.880;2023-05-14T16:07:16;28.90;;;22.07;;
5904;SDS011;2978;42.012;24.880;2023-05-14T16:15:51;28.07;;;21.43;;
5904;SDS011;2978;42.012;24.880;2023-05-14T16:18:17;28.63;;;20.73;;
5904;SDS011;2978;42.012;24.880;2023-05-14T16:23:50;31.40;;;20.93;;
5904;SDS011;2978;42.012;24.880;2023-05-14T16:26:18;26.60;;;19.70;;
5904;SDS011;2978;42.012;24.880;2023-05-14T16:40:30;27.43;;;19.40;;
5904;SDS011;2978;42.012;24.880;2023-05-14T16:43:07;27.33;;;18.87;;
5904;SDS011;2978;42.012;24.880;2023-05-14T16:45:33;24.10;;;19.97;;
5904;SDS011;2978;42.012;24.880;2023-05-14T16:48:10;24.47;;;19.30;;
5904;SDS011;2978;42.012;24.880;2023-05-14T16:50:38;22.50;;;20.10;;
5904;SDS011;2978;42.012;24.880;2023-05-14T16:56:38;31.13;;;23.47;;
5904;SDS011;2978;42.012;24.880;2023-05-14T16:59:09;30.93;;;21.80;;
5904;SDS011;2978;42.012;24.880;2023-05-14T17:07:38;30.47;;;24.50;;
5904;SDS011;2978;42.012;24.880;2023-05-14T17:31:38;36.77;;;31.27;;
5904;SDS011;2978;42.012;24.880;2023-05-14T17:34:07;38.80;;;30.40;;
5904;SDS011;2978;42.012;24.880;2023-05-14T17:36:35;41.07;;;31.57;;
5904;SDS011;2978;42.012;24.880;2023-05-14T17:39:01;37.57;;;30.00;;
5904;SDS011;2978;42.012;24.880;2023-05-14T17:41:27;35.60;;;29.80;;
5904;SDS011;2978;42.012;24.880;2023-05-14T17:43:55;38.77;;;29.67;;
5904;SDS011;2978;42.012;24.880;2023-05-14T17:46:21;41.60;;;28.97;;
5904;SDS011;2978;42.012;24.880;2023-05-14T17:48:47;40.97;;;30.07;;
5904;SDS011;2978;42.012;24.880;2023-05-14T17:51:12;39.03;;;31.50;;
5904;SDS011;2978;42.012;24.880;2023-05-14T17:53:43;34.87;;;27.53;;
5904;SDS011;2978;42.012;24.880;2023-05-14T17:56:09;38.07;;;29.87;;
5904;SDS011;2978;42.012;24.880;2023-05-14T17:58:34;37.53;;;30.07;;
5904;SDS011;2978;42.012;24.880;2023-05-14T18:01:00;34.50;;;28.40;;
5904;SDS011;2978;42.012;24.880;2023-05-14T18:03:25;37.43;;;29.90;;
5904;SDS011;2978;42.012;24.880;2023-05-14T18:05:51;37.77;;;28.23;;
5904;SDS011;2978;42.012;24.880;2023-05-14T18:08:16;31.67;;;25.87;;
5904;SDS011;2978;42.012;24.880;2023-05-14T18:10:42;31.73;;;26.80;;
5904;SDS011;2978;42.012;24.880;2023-05-14T18:13:07;31.83;;;27.87;;
5904;SDS011;2978;42.012;24.880;2023-05-14T18:15:34;39.67;;;27.87;;
5904;SDS011;2978;42.012;24.880;2023-05-14T18:18:00;34.77;;;28.80;;
5904;SDS011;2978;42.012;24.880;2023-05-14T18:20:31;37.80;;;30.67;;
5904;SDS011;2978;42.012;24.880;2023-05-14T18:22:57;45.23;;;31.73;;
5904;SDS011;2978;42.012;24.880;2023-05-14T18:25:22;38.10;;;31.00;;
5904;SDS011;2978;42.012;24.880;2023-05-14T18:27:48;39.53;;;33.27;;
5904;SDS011;2978;42.012;24.880;2023-05-14T18:30:14;41.20;;;33.27;;
5904;SDS011;2978;42.012;24.880;2023-05-14T18:32:40;39.77;;;34.17;;
5904;SDS011;2978;42.012;24.880;2023-05-14T18:35:07;40.20;;;32.70;;
5904;SDS011;2978;42.012;24.880;2023-05-14T18:51:31;55.83;;;35.57;;
5904;SDS011;2978;42.012;24.880;2023-05-14T18:57:18;48.80;;;35.10;;
5904;SDS011;2978;42.012;24.880;2023-05-14T18:59:59;51.33;;;37.67;;
5904;SDS011;2978;42.012;24.880;2023-05-14T19:02:26;51.03;;;37.10;;
5904;SDS011;2978;42.012;24.880;2023-05-14T19:04:52;52.83;;;38.50;;
5904;SDS011;2978;42.012;24.880;2023-05-14T19:07:17;55.03;;;38.60;;
5904;SDS011;2978;42.012;24.880;2023-05-14T19:09:43;54.93;;;41.73;;
5904;SDS011;2978;42.012;24.880;2023-05-14T19:12:10;58.37;;;42.93;;
5904;SDS011;2978;42.012;24.880;2023-05-14T19:14:36;54.17;;;39.33;;
5904;SDS011;2978;42.012;24.880;2023-05-14T19:17:01;58.60;;;40.47;;
5904;SDS011;2978;42.012;24.880;2023-05-14T19:19:27;43.90;;;34.87;;
5904;SDS011;2978;42.012;24.880;2023-05-14T19:21:53;42.67;;;32.13;;
5904;SDS011;2978;42.012;24.880;2023-05-14T19:24:18;40.30;;;32.30;;
5904;SDS011;2978;42.012;24.880;2023-05-14T19:26:44;39.00;;;33.00;;
5904;SDS011;2978;42.012;24.880;2023-05-14T19:29:09;40.13;;;32.50;;
5904;SDS011;2978;42.012;24.880;2023-05-14T19:31:35;42.40;;;33.47;;
5904;SDS011;2978;42.012;24.880;2023-05-14T19:34:00;34.87;;;29.67;;
5904;SDS011;2978;42.012;24.880;2023-05-14T19:36:26;37.40;;;30.13;;
5904;SDS011;2978;42.012;24.880;2023-05-14T19:38:56;40.03;;;30.73;;
5904;SDS011;2978;42.012;24.880;2023-05-14T19:41:21;41.20;;;32.20;;
5904;SDS011;2978;42.012;24.880;2023-05-14T19:43:47;34.97;;;28.87;;
5904;SDS011;2978;42.012;24.880;2023-05-14T19:46:12;42.93;;;29.90;;
5904;SDS011;2978;42.012;24.880;2023-05-14T19:48:38;41.90;;;32.80;;
5904;SDS011;2978;42.012;24.880;2023-05-14T19:51:04;40.13;;;31.80;;
5904;SDS011;2978;42.012;24.880;2023-05-14T19:53:30;35.63;;;31.60;;
5904;SDS011;2978;42.012;24.880;2023-05-14T19:55:55;41.77;;;30.73;;
5904;SDS011;2978;42.012;24.880;2023-05-14T19:58:28;35.80;;;29.40;;
5904;SDS011;2978;42.012;24.880;2023-05-14T20:00:54;39.57;;;30.70;;
5904;SDS011;2978;42.012;24.880;2023-05-14T20:03:24;40.07;;;30.43;;
5904;SDS011;2978;42.012;24.880;2023-05-14T20:05:50;35.90;;;28.10;;
5904;SDS011;2978;42.012;24.880;2023-05-14T20:11:21;23.43;;;20.07;;
5904;SDS011;2978;42.012;24.880;2023-05-14T20:13:49;35.03;;;24.40;;
5904;SDS011;2978;42.012;24.880;2023-05-14T20:16:15;20.67;;;18.23;;
5904;SDS011;2978;42.012;24.880;2023-05-14T20:18:41;17.07;;;15.27;;
5904;SDS011;2978;42.012;24.880;2023-05-14T20:21:10;16.90;;;13.40;;
5904;SDS011;2978;42.012;24.880;2023-05-14T20:23:42;15.67;;;11.60;;
5904;SDS011;2978;42.012;24.880;2023-05-14T20:26:12;20.10;;;10.87;;
5904;SDS011;2978;42.012;24.880;2023-05-14T20:28:38;11.87;;;9.10;;
5904;SDS011;2978;42.012;24.880;2023-05-14T20:31:24;12.23;;;9.33;;
5904;SDS011;2978;42.012;24.880;2023-05-14T20:33:49;13.00;;;9.13;;
5904;SDS011;2978;42.012;24.880;2023-05-14T20:39:17;12.97;;;9.47;;
5904;SDS011;2978;42.012;24.880;2023-05-14T20:41:43;9.50;;;8.10;;
5904;SDS011;2978;42.012;24.880;2023-05-14T20:44:09;10.10;;;7.87;;
5904;SDS011;2978;42.012;24.880;2023-05-14T20:46:35;15.93;;;9.07;;
5904;SDS011;2978;42.012;24.880;2023-05-14T20:49:01;10.70;;;8.57;;
5904;SDS011;2978;42.012;24.880;2023-05-14T20:51:27;9.90;;;8.90;;
5904;SDS011;2978;42.012;24.880;2023-05-14T20:53:52;12.20;;;9.50;;
5904;SDS011;2978;42.012;24.880;2023-05-14T20:59:13;11.00;;;9.80;;
5904;SDS011;2978;42.012;24.880;2023-05-14T21:01:42;11.13;;;8.83;;
5904;SDS011;2978;42.012;24.880;2023-05-14T21:04:07;10.10;;;9.00;;
5904;SDS011;2978;42.012;24.880;2023-05-14T21:06:33;14.00;;;10.13;;
5904;SDS011;2978;42.012;24.880;2023-05-14T21:08:58;10.90;;;9.40;;
5904;SDS011;2978;42.012;24.880;2023-05-14T21:11:24;11.20;;;9.13;;
5904;SDS011;2978;42.012;24.880;2023-05-14T21:13:49;10.90;;;9.80;;
5904;SDS011;2978;42.012;24.880;2023-05-14T21:19:14;10.63;;;9.53;;
5904;SDS011;2978;42.012;24.880;2023-05-14T21:21:39;12.30;;;10.20;;
5904;SDS011;2978;42.012;24.880;2023-05-14T21:24:05;12.00;;;10.43;;
5904;SDS011;2978;42.012;24.880;2023-05-14T21:26:31;13.07;;;10.20;;
5904;SDS011;2978;42.012;24.880;2023-05-14T21:28:57;12.50;;;9.70;;
5904;SDS011;2978;42.012;24.880;2023-05-14T21:31:23;25.63;;;10.73;;
5904;SDS011;2978;42.012;24.880;2023-05-14T21:33:49;12.97;;;10.23;;
5904;SDS011;2978;42.012;24.880;2023-05-14T21:36:14;12.30;;;10.30;;
5904;SDS011;2978;42.012;24.880;2023-05-14T21:38:40;11.40;;;9.33;;
5904;SDS011;2978;42.012;24.880;2023-05-14T21:41:05;20.00;;;10.80;;
5904;SDS011;2978;42.012;24.880;2023-05-14T21:43:31;13.80;;;11.10;;
5904;SDS011;2978;42.012;24.880;2023-05-14T21:45:56;11.53;;;10.40;;
5904;SDS011;2978;42.012;24.880;2023-05-14T21:48:22;18.87;;;11.30;;
5904;SDS011;2978;42.012;24.880;2023-05-14T21:50:47;13.07;;;11.17;;
5904;SDS011;2978;42.012;24.880;2023-05-14T22:07:35;13.37;;;12.00;;
5904;SDS011;2978;42.012;24.880;2023-05-14T22:13:39;13.70;;;12.30;;
5904;SDS011;2978;42.012;24.880;2023-05-14T22:16:06;14.43;;;11.30;;
5904;SDS011;2978;42.012;24.880;2023-05-14T22:30:54;17.37;;;14.60;;
5904;SDS011;2978;42.012;24.880;2023-05-14T22:33:23;17.30;;;13.30;;
5904;SDS011;2978;42.012;24.880;2023-05-14T22:41:46;15.80;;;12.80;;
5904;SDS011;2978;42.012;24.880;2023-05-14T22:50:54;15.40;;;12.90;;
5904;SDS011;2978;42.012;24.880;2023-05-14T22:53:19;21.90;;;13.83;;
5904;SDS011;2978;42.012;24.880;2023-05-14T22:55:45;18.63;;;13.20;;
5904;SDS011;2978;42.012;24.880;2023-05-14T22:58:10;23.10;;;13.60;;
5904;SDS011;2978;42.012;24.880;2023-05-14T23:00:36;14.53;;;13.00;;
5904;SDS011;2978;42.012;24.880;2023-05-14T23:03:10;17.27;;;14.20;;
5904;SDS011;2978;42.012;24.880;2023-05-14T23:05:36;14.43;;;12.63;;
5904;SDS011;2978;42.012;24.880;2023-05-14T23:08:01;14.83;;;13.33;;
5904;SDS011;2978;42.012;24.880;2023-05-14T23:10:27;18.53;;;14.23;;
5904;SDS011;2978;42.012;24.880;2023-05-14T23:32:37;26.60;;;17.90;;
5904;SDS011;2978;42.012;24.880;2023-05-14T23:35:02;37.13;;;21.53;;
5904;SDS011;2978;42.012;24.880;2023-05-14T23:37:28;30.40;;;19.10;;
5904;SDS011;2978;42.012;24.880;2023-05-14T23:39:56;35.70;;;20.10;;
5904;SDS011;2978;42.012;24.880;2023-05-14T23:42:21;35.03;;;21.27;;
5904;SDS011;2978;42.012;24.880;2023-05-14T23:51:32;40.00;;;21.63;;
5904;SDS011;2978;42.012;24.880;2023-05-14T23:53:57;38.93;;;21.80;;
5904;SDS011;2978;42.012;24.880;2023-05-14T23:56:23;31.90;;;20.43;;
5904;SDS011;2978;42.012;24.880;2023-05-14T23:58:50;38.43;;;21.03;;
